Latest Weather Observations for Yarram Airport

IDV60801

Issued at 8:32 am EST Monday 27 June 2016 (issued every 30 minutes, with the page automatically refreshed every 10 minutes)

About weather observations | Map of weather stations | Latest weather observations for VIC | Other Formats
Station Details ID: 085151 Name: YARRAM AIRPORT Lat: -38.56 Lon: 146.75 Height: 17.9 m
Data from the previous 72 hours. | See also: Recent months at Yarram Airport
Date/Time
EST
Temp
°C
App
Temp
°C
Dew
Point
°C
Rel
Hum
%
Delta-T
°C
Wind Press
QNH
hPa
Press
MSL
hPa
Rain since
9am
mm
Dir  Spd
km/h
Gust
km/h
Spd
kts
Gust
kts
27/08:30am 6.5 3.9 4.3 86 0.9 SW 7 7 4 4 1015.7 1015.8 0.0
27/08:00am 4.9 2.2 2.6 85 0.9 SW 6 7 3 4 1015.4 1015.5 0.0
27/07:30am 4.7 1.7 1.9 82 1.1 SSE 7 9 4 5 1015.3 1015.4 0.0
27/07:00am 5.3 3.6 1.8 78 1.4 CALM 0 0 0 0 1015.0 1015.1 0.0
27/06:30am 6.4 1.9 2.3 75 1.7 WNW 15 22 8 12 1014.8 1014.9 0.0
27/06:00am 6.1 1.7 2.6 78 1.4 WNW 15 24 8 13 1014.7 1014.8 0.0
27/05:30am 4.4 0.5 0.9 78 1.4 NW 11 13 6 7 1014.7 1014.8 0.0
27/05:00am 4.1 0.2 1.0 80 1.2 NW 11 15 6 8 1014.5 1014.6 0.0
27/04:30am 5.7 0.7 1.1 72 1.8 NNW 17 22 9 12 1014.5 1014.6 0.0
27/04:00am 2.7 -1.9 -0.9 77 1.3 N 13 15 7 8 1014.6 1014.7 0.0
27/03:30am 4.5 -0.2 0.8 77 1.4 NW 15 19 8 10 1015.0 1015.1 0.0
27/03:00am 4.5 -0.6 0.6 76 1.5 NW 17 20 9 11 1015.1 1015.2 0.0
27/02:30am 3.8 -0.9 0.7 80 1.2 NW 15 19 8 10 1015.3 1015.4 0.0
27/02:00am 2.3 -2.0 0.8 90 0.6 NNW 13 20 7 11 1015.4 1015.5 0.0
27/01:30am 0.9 -2.3 -0.7 89 0.6 N 6 9 3 5 1015.6 1015.7 0.0
27/01:00am 1.5 -2.3 -0.6 86 0.8 NNE 9 11 5 6 1015.6 1015.7 0.0
27/12:30am 3.4 -0.2 0.6 82 1.1 NNW 9 11 5 6 1015.7 1015.8 0.0
27/12:00am 4.1 0.3 1.5 83 1.0 NW 11 13 6 7 1015.7 1015.8 0.0
 
Date/Time
EST
Temp
°C
App
Temp
°C
Dew
Point
°C
Rel
Hum
%
Delta-T
°C
Wind Press
QNH
hPa
Press
MSL
hPa
Rain since
9am
mm
Dir  Spd
km/h
Gust
km/h
Spd
kts
Gust
kts
26/11:30pm 4.2 -0.1 1.1 80 1.2 NW 13 15 7 8 1015.9 1016.0 0.0
26/11:00pm 5.1 0.6 2.1 81 1.2 NNW 15 17 8 9 1015.9 1016.0 0.0
26/10:30pm 2.4 -0.8 -0.2 83 1.0 N 6 9 3 5 1016.0 1016.1 0.0
26/10:00pm 4.4 1.3 1.4 81 1.2 WNW 7 9 4 5 1016.2 1016.3 0.0
26/09:30pm 5.1 3.2 2.6 84 1.0 SW 2 9 1 5 1016.4 1016.5 0.0
26/09:00pm 4.4 0.6 1.8 83 1.0 WNW 11 15 6 8 1016.3 1016.4 0.0
26/08:30pm 5.1 1.0 2.3 82 1.1 WSW 13 17 7 9 1016.4 1016.5 0.0
26/08:00pm 6.0 2.5 3.3 83 1.1 W 11 17 6 9 1016.6 1016.7 0.0
26/07:30pm 5.4 2.3 3.6 88 0.8 WSW 9 11 5 6 1016.6 1016.7 0.0
26/07:00pm 5.6 4.2 3.3 85 1.0 CALM 0 0 0 0 1016.6 1016.7 0.0
26/06:30pm 6.3 4.9 3.6 83 1.1 CALM 0 0 0 0 1016.5 1016.6 0.0
26/06:00pm 6.9 3.5 4.0 82 1.2 W 11 13 6 7 1016.4 1016.5 0.0
26/05:30pm 7.7 3.3 4.8 82 1.3 W 17 20 9 11 1016.3 1016.4 0.0
26/05:00pm 7.6 3.9 4.7 82 1.3 W 13 17 7 9 1016.0 1016.1 0.0
26/04:30pm 8.4 4.8 5.2 80 1.4 SW 13 13 7 7 1015.9 1016.0 0.0
26/04:00pm 10.1 6.7 5.7 74 2.0 WSW 13 17 7 9 1015.9 1016.0 0.0
26/03:30pm 10.7 7.3 5.9 72 2.2 WSW 13 17 7 9 1016.0 1016.1 0.0
26/03:00pm 11.6 8.4 6.7 72 2.3 SW 13 17 7 9 1015.9 1016.0 0.0
26/02:30pm 11.1 7.4 6.5 73 2.2 SW 15 20 8 11 1016.0 1016.1 0.0
26/02:00pm 12.0 8.3 6.1 67 2.8 WSW 15 20 8 11 1016.2 1016.3 0.0
26/01:30pm 11.8 8.4 5.9 67 2.8 WSW 13 19 7 10 1016.3 1016.4 0.0
26/01:00pm 12.4 9.5 6.7 68 2.7 SW 11 15 6 8 1016.7 1016.8 0.0
26/12:30pm 12.4 9.9 6.5 67 2.8 SSW 9 13 5 7 1017.0 1017.1 0.0
26/12:00pm 12.0 9.1 6.5 69 2.6 SW 11 15 6 8 1017.7 1017.8 0.0
26/11:30am 11.5 8.2 6.6 72 2.3 WSW 13 17 7 9 1018.4 1018.5 0.0
26/11:00am 11.4 7.9 7.1 75 2.1 WSW 15 17 8 9 1019.1 1019.2 0.0
26/10:30am 10.5 6.9 6.6 77 1.8 WSW 15 19 8 10 1019.4 1019.5 0.0
26/10:00am 9.5 6.6 6.4 81 1.4 WSW 11 13 6 7 1019.7 1019.8 0.0
26/09:30am 8.4 6.1 5.9 84 1.1 WNW 7 11 4 6 1019.9 1020.0 0.0
26/09:00am 7.1 5.0 5.7 91 0.6 N 6 7 3 4 1019.9 1020.0 0.0
26/08:30am 4.9 2.4 3.7 92 0.5 NNW 6 7 3 4 1019.9 1020.0 0.0
26/08:00am 3.6 0.9 2.4 92 0.5 WNW 6 9 3 5 1020.0 1020.1 0.0
26/07:30am 4.5 1.7 3.3 92 0.5 W 7 9 4 5 1019.8 1019.9 0.0
26/07:00am 4.1 0.5 2.8 91 0.5 W 11 15 6 8 1019.7 1019.8 0.0
26/06:30am 4.1 1.2 2.5 89 0.6 WNW 7 9 4 5 1019.6 1019.7 0.0
26/06:00am 5.3 2.2 3.6 89 0.7 W 9 11 5 6 1019.4 1019.5 0.0
26/05:30am 5.7 2.2 3.7 87 0.8 WNW 11 13 6 7 1019.1 1019.2 0.0
26/05:00am 7.0 3.4 4.8 86 1.0 W 13 15 7 8 1019.3 1019.4 0.0
26/04:30am 8.0 4.5 5.5 84 1.1 W 13 17 7 9 1019.7 1019.8 0.0
26/04:00am 8.4 5.4 6.0 85 1.1 W 11 15 6 8 1019.8 1019.9 0.0
26/03:30am 8.4 5.5 6.4 87 0.9 WNW 11 13 6 7 1019.8 1019.9 0.0
26/03:00am 8.5 4.8 6.3 86 1.0 WNW 15 20 8 11 1020.0 1020.1 0.0
26/02:30am 8.7 4.7 6.5 86 1.0 W 17 22 9 12 1019.9 1020.0 0.0
26/02:00am 7.6 5.0 6.2 91 0.6 WSW 9 11 5 6 1020.2 1020.3 0.0
26/01:30am 6.9 4.7 5.4 90 0.7 WNW 6 7 3 4 1020.2 1020.3 0.0
26/01:00am 6.5 4.0 5.0 90 0.7 WNW 7 9 4 5 1020.0 1020.1 0.0
26/12:30am 7.1 4.8 5.7 91 0.6 WNW 7 11 4 6 1020.2 1020.3 0.0
26/12:00am 7.0 3.6 5.8 92 0.5 WNW 13 17 7 9 1020.3 1020.4 0.0
 
Date/Time
EST
Temp
°C
App
Temp
°C
Dew
Point
°C
Rel
Hum
%
Delta-T
°C
Wind Press
QNH
hPa
Press
MSL
hPa
Rain since
9am
mm
Dir  Spd
km/h
Gust
km/h
Spd
kts
Gust
kts
25/11:30pm 6.6 3.5 5.4 92 0.5 WNW 11 13 6 7 1020.7 1020.8 0.0
25/11:00pm 6.2 3.0 5.2 93 0.4 W 11 13 6 7 1020.9 1021.0 0.0
25/10:30pm 5.2 2.6 4.0 92 0.5 WNW 7 11 4 6 1020.9 1021.0 0.0
25/10:00pm 5.3 1.5 4.1 92 0.5 W 13 15 7 8 1020.9 1021.0 0.0
25/09:30pm 4.9 1.4 3.6 91 0.5 WNW 11 15 6 8 1020.9 1021.0 0.0
25/09:00pm 4.9 1.4 3.6 91 0.5 WNW 11 13 6 7 1021.1 1021.2 0.0
25/08:30pm 5.5 2.5 4.2 91 0.6 WNW 9 11 5 6 1021.3 1021.4 0.0
25/08:00pm 5.5 2.5 4.2 91 0.5 WNW 9 13 5 7 1021.4 1021.5 0.0
25/07:30pm 5.7 2.3 4.2 90 0.6 WNW 11 13 6 7 1021.5 1021.6 0.0
25/07:00pm 5.8 2.8 4.1 89 0.7 WNW 9 11 5 6 1021.5 1021.6 0.0
25/06:30pm 6.5 2.9 4.8 89 0.7 W 13 15 7 8 1021.3 1021.4 0.0
25/06:00pm 6.7 3.5 5.0 89 0.7 WNW 11 15 6 8 1021.3 1021.4 0.0
25/05:30pm 7.5 4.0 5.5 87 0.9 WNW 13 15 7 8 1021.1 1021.2 0.0
25/05:00pm 7.9 4.8 5.5 85 1.1 WNW 11 13 6 7 1020.8 1020.9 0.0
25/04:30pm 9.6 6.7 6.5 81 1.4 W 11 13 6 7 1020.8 1020.9 0.0
25/04:00pm 10.3 6.3 6.6 78 1.7 W 17 22 9 12 1020.7 1020.8 0.0
25/03:30pm 10.2 5.4 5.8 74 2.0 WSW 20 28 11 15 1020.5 1020.6 0.0
25/03:00pm 11.3 6.7 6.4 72 2.3 WSW 20 26 11 14 1020.4 1020.5 0.0
25/02:30pm 11.0 6.2 5.7 70 2.4 WSW 20 32 11 17 1020.5 1020.6 0.0
25/02:00pm 10.7 5.6 5.9 72 2.2 WSW 22 30 12 16 1020.5 1020.6 0.0
25/01:30pm 11.3 5.5 6.4 72 2.3 WSW 26 35 14 19 1020.7 1020.8 0.0
25/01:00pm 11.4 6.8 6.7 73 2.2 WSW 20 28 11 15 1020.6 1020.7 0.0
25/12:30pm 10.8 6.5 6.9 77 1.8 W 19 26 10 14 1020.6 1020.7 0.0
25/12:00pm 10.1 5.4 5.9 75 1.9 W 20 28 11 15 1021.1 1021.2 0.0
25/11:30am 9.9 5.3 6.4 79 1.6 W 20 26 11 14 1021.3 1021.4 0.0
25/11:00am 9.3 3.8 5.9 79 1.6 W 24 30 13 16 1021.2 1021.3 0.0
25/10:30am 9.3 5.1 5.9 79 1.6 W 17 22 9 12 1021.2 1021.3 0.0
25/10:00am 8.3 4.0 5.4 82 1.3 WNW 17 20 9 11 1021.0 1021.1 0.0
25/09:30am 7.6 4.2 5.9 89 0.8 WNW 13 20 7 11 1020.7 1020.8 0.0
25/09:00am 7.2 2.8 5.0 86 1.0 W 17 20 9 11 1020.5 1020.6 0.0
25/08:30am 6.0 2.6 3.8 86 0.9 WNW 11 15 6 8 1020.0 1020.1 0.0
25/08:00am 5.9 1.0 4.1 88 0.8 WNW 19 24 10 13 1019.8 1019.9 0.0
25/07:30am 4.9 0.2 3.4 90 0.6 WNW 17 20 9 11 1019.6 1019.7 0.0
25/07:00am 4.7 0.3 2.9 88 0.7 NW 15 19 8 10 1019.3 1019.4 0.0
25/06:30am 5.4 0.8 3.6 88 0.8 WNW 17 24 9 13 1018.8 1018.9 0.0
25/06:00am 6.0 1.1 4.2 88 0.8 WNW 19 28 10 15 1018.6 1018.7 0.0
25/05:30am 5.4 0.8 3.6 88 0.8 WNW 17 20 9 11 1018.1 1018.2 0.0
25/05:00am 4.5 0.1 2.7 88 0.7 W 15 20 8 11 1017.7 1017.8 0.0
25/04:30am 4.6 0.6 2.8 88 0.7 W 13 17 7 9 1017.6 1017.7 0.0
25/04:00am 4.8 0.0 2.8 87 0.8 WNW 17 20 9 11 1017.1 1017.2 0.0
25/03:30am 5.0 -0.1 2.9 86 0.9 WNW 19 26 10 14 1016.8 1016.9 0.0
25/03:00am 4.6 0.2 2.5 86 0.8 W 15 19 8 10 1016.6 1016.7 0.0
25/02:30am 5.1 -0.2 2.8 85 0.9 W 20 26 11 14 1016.3 1016.4 0.0
25/02:00am 4.9 0.1 2.8 86 0.9 W 17 20 9 11 1015.9 1016.0 0.0
25/01:30am 5.3 0.6 3.2 86 0.9 W 17 22 9 12 1015.8 1015.9 0.0
25/01:00am 5.4 -0.2 3.3 86 0.9 W 22 30 12 16 1015.4 1015.5 0.0
25/12:30am 5.1 0.0 3.0 86 0.9 W 19 24 10 13 1015.2 1015.3 0.0
25/12:00am 4.9 -0.8 2.9 87 0.8 W 22 28 12 15 1014.6 1014.7 0.0
 
Date/Time
EST
Temp
°C
App
Temp
°C
Dew
Point
°C
Rel
Hum
%
Delta-T
°C
Wind Press
QNH
hPa
Press
MSL
hPa
Rain since
9am
mm
Dir  Spd
km/h
Gust
km/h
Spd
kts
Gust
kts
24/11:30pm 4.8 -1.3 2.7 86 0.9 WNW 24 30 13 16 1014.4 1014.5 0.0
24/11:00pm 5.0 -1.5 2.5 84 1.0 WNW 26 33 14 18 1014.1 1014.2 0.0
24/10:30pm 4.5 -1.3 2.4 86 0.8 WNW 22 32 12 17 1013.6 1013.7 0.0
24/10:00pm 5.2 -1.2 3.2 87 0.8 W 26 33 14 18 1013.4 1013.5 0.0
24/09:30pm 4.6 -0.8 2.5 86 0.8 W 20 26 11 14 1013.0 1013.1 0.0
24/09:00pm 4.9 -0.4 3.2 89 0.7 WNW 20 26 11 14 1012.8 1012.9 0.0
24/08:30pm 3.9 -1.3 2.4 90 0.6 WNW 19 26 10 14 1012.2 1012.3 0.0
24/08:00pm 4.4 -0.7 2.9 90 0.6 WNW 19 28 10 15 1011.7 1011.8 0.0
24/07:41pm 4.8 -2.0 3.1 89 0.7 WSW 28 44 15 24 1011.7 1011.8 0.0
24/07:30pm 5.1 0.0 3.3 88 0.7 WSW 19 26 10 14 1011.3 1011.4 0.0
24/07:00pm 5.2 -1.3 2.6 83 1.1 WNW 26 35 14 19 1010.0 1010.0 0.0
24/06:30pm 5.2 0.9 3.5 89 0.7 WNW 15 22 8 12 1009.5 1009.5 0.0
24/06:00pm 4.8 0.5 3.5 91 0.5 WNW 15 17 8 9 1009.0 1009.0 0.0
24/05:30pm 5.2 -0.8 3.5 89 0.7 WNW 24 33 13 18 1008.6 1008.6 0.0
24/05:00pm 4.5 -0.6 3.0 90 0.6 WNW 19 26 10 14 1007.7 1007.7 0.0
24/04:30pm 4.8 -2.4 3.1 89 0.7 W 30 48 16 26 1007.1 1007.1 0.0
24/04:28pm 4.8 -2.8 3.1 89 0.7 W 32 48 17 26 1007.1 1007.1 0.0
24/04:12pm 5.1 -3.8 3.0 86 0.9 W 39 59 21 32 1007.4 1007.4 0.0
24/04:08pm 5.8 -1.7 3.3 84 1.0 W 32 54 17 29 1007.1 1007.1 0.0
24/04:00pm 6.0 -0.4 3.2 82 1.2 W 26 41 14 22 1006.2 1006.2 0.0
24/03:30pm 6.3 1.2 4.1 86 0.9 W 20 30 11 16 1005.4 1005.4 0.0
24/03:00pm 7.3 0.7 4.3 81 1.3 W 28 35 15 19 1004.6 1004.6 0.0
24/02:30pm 7.7 2.1 5.3 85 1.1 W 24 35 13 19 1004.1 1004.1 0.0
24/02:00pm 6.7 1.4 5.2 90 0.7 WNW 22 28 12 15 1003.7 1003.7 0.0
24/01:30pm 6.0 -0.2 4.5 90 0.6 W 26 37 14 20 1003.6 1003.6 0.0
24/01:00pm 5.5 0.0 4.2 91 0.6 WNW 22 30 12 16 1003.3 1003.3 0.0
24/12:30pm 4.8 -0.8 3.6 92 0.5 W 22 33 12 18 1003.5 1003.5 0.0
24/12:00pm 5.9 -0.6 4.5 91 0.6 SW 28 37 15 20 1003.2 1003.2 0.0
24/11:30am 6.9 2.0 4.9 87 0.9 WSW 20 28 11 15 1002.7 1002.7 0.0
24/11:00am 6.6 0.8 4.6 87 0.9 SW 24 32 13 17 1002.7 1002.7 0.0
24/10:30am 8.2 1.7 4.8 79 1.5 W 28 37 15 20 1002.1 1002.1 0.0
24/10:00am 7.7 0.7 4.1 78 1.6 WNW 30 43 16 23 1001.8 1001.8 0.0
24/09:52am 7.8 1.1 3.8 76 1.7 WNW 28 46 15 25 1001.5 1001.5 0.0
24/09:30am 7.4 1.9 3.8 78 1.5 WNW 22 32 12 17 1001.2 1001.2 0.0
24/09:00am 7.1 2.1 3.5 78 1.5 WNW 19 24 10 13 1000.8 1000.8 0.0

Other Formats:

Comma delimited format used in spreadsheet applications
http://www.bom.gov.au/fwo/IDV60801/IDV60801.95890.axf

JavaScript Object Notation format (JSON) in row-major order
http://www.bom.gov.au/fwo/IDV60801/IDV60801.95890.json